sensor_id;sensor_type;location;lat;lon;timestamp;pressure;altitude;pressure_sealevel;temperature;humidity
11448;BME280;43755;49.736;8.734;2023-03-08T00:01:18;96371.78;;;4.04;86.04
11448;BME280;43755;49.736;8.734;2023-03-08T00:03:21;96366.63;;;4.02;84.44
11448;BME280;43755;49.736;8.734;2023-03-08T00:05:22;96377.03;;;4.04;85.68
11448;BME280;43755;49.736;8.734;2023-03-08T00:07:23;96364.00;;;4.02;87.14
11448;BME280;43755;49.736;8.734;2023-03-08T00:09:25;96373.75;;;3.99;86.48
11448;BME280;43755;49.736;8.734;2023-03-08T00:11:26;96362.38;;;4.00;84.95
11448;BME280;43755;49.736;8.734;2023-03-08T00:13:28;96366.56;;;4.04;85.44
11448;BME280;43755;49.736;8.734;2023-03-08T00:15:29;96362.44;;;3.98;86.63
11448;BME280;43755;49.736;8.734;2023-03-08T00:17:31;96381.00;;;3.92;85.56
11448;BME280;43755;49.736;8.734;2023-03-08T00:19:37;96380.97;;;3.94;86.80
11448;BME280;43755;49.736;8.734;2023-03-08T00:21:38;96369.63;;;3.93;86.25
11448;BME280;43755;49.736;8.734;2023-03-08T00:23:41;96371.47;;;3.91;88.05
11448;BME280;43755;49.736;8.734;2023-03-08T00:25:42;96375.13;;;3.87;87.36
11448;BME280;43755;49.736;8.734;2023-03-08T00:27:44;96367.13;;;3.90;87.99
11448;BME280;43755;49.736;8.734;2023-03-08T00:29:45;96370.75;;;3.88;87.75
11448;BME280;43755;49.736;8.734;2023-03-08T00:31:47;96367.22;;;3.89;86.17
11448;BME280;43755;49.736;8.734;2023-03-08T00:33:51;96361.69;;;3.95;86.40
11448;BME280;43755;49.736;8.734;2023-03-08T00:35:56;96367.09;;;3.92;87.18
11448;BME280;43755;49.736;8.734;2023-03-08T00:37:57;96364.66;;;3.87;88.46
11448;BME280;43755;49.736;8.734;2023-03-08T00:39:59;96368.13;;;3.88;86.50
11448;BME280;43755;49.736;8.734;2023-03-08T00:42:00;96364.53;;;3.90;86.27
11448;BME280;43755;49.736;8.734;2023-03-08T00:44:02;96364.53;;;3.90;86.91
11448;BME280;43755;49.736;8.734;2023-03-08T00:46:03;96356.88;;;3.86;86.66
11448;BME280;43755;49.736;8.734;2023-03-08T00:48:05;96360.41;;;3.85;88.12
11448;BME280;43755;49.736;8.734;2023-03-08T00:50:08;96358.69;;;3.84;86.41
11448;BME280;43755;49.736;8.734;2023-03-08T00:52:11;96356.03;;;3.85;86.36
11448;BME280;43755;49.736;8.734;2023-03-08T00:54:12;96355.91;;;3.88;87.12
11448;BME280;43755;49.736;8.734;2023-03-08T00:56:14;96357.03;;;3.83;87.54
11448;BME280;43755;49.736;8.734;2023-03-08T00:58:15;96348.38;;;3.81;87.96
11448;BME280;43755;49.736;8.734;2023-03-08T01:00:17;96343.19;;;3.79;86.79
11448;BME280;43755;49.736;8.734;2023-03-08T01:02:19;96351.78;;;3.83;88.06
11448;BME280;43755;49.736;8.734;2023-03-08T01:04:20;96339.69;;;3.80;86.94
11448;BME280;43755;49.736;8.734;2023-03-08T01:06:21;96334.50;;;3.79;87.41
11448;BME280;43755;49.736;8.734;2023-03-08T01:08:26;96334.31;;;3.83;86.06
11448;BME280;43755;49.736;8.734;2023-03-08T01:10:27;96338.81;;;3.80;88.16
11448;BME280;43755;49.736;8.734;2023-03-08T01:12:30;96342.28;;;3.80;88.10
11448;BME280;43755;49.736;8.734;2023-03-08T01:14:32;96324.09;;;3.77;87.53
11448;BME280;43755;49.736;8.734;2023-03-08T01:16:33;96328.56;;;3.75;87.57
11448;BME280;43755;49.736;8.734;2023-03-08T01:18:34;96327.66;;;3.76;86.72
11448;BME280;43755;49.736;8.734;2023-03-08T01:20:36;96329.06;;;3.83;87.00
11448;BME280;43755;49.736;8.734;2023-03-08T01:22:37;96317.00;;;3.81;87.14
11448;BME280;43755;49.736;8.734;2023-03-08T01:24:44;96314.44;;;3.79;85.97
11448;BME280;43755;49.736;8.734;2023-03-08T01:26:45;96324.03;;;3.79;85.59
11448;BME280;43755;49.736;8.734;2023-03-08T01:28:47;96327.50;;;3.79;84.95
11448;BME280;43755;49.736;8.734;2023-03-08T01:30:49;96325.69;;;3.81;86.00
11448;BME280;43755;49.736;8.734;2023-03-08T01:32:50;96329.34;;;3.77;86.94
11448;BME280;43755;49.736;8.734;2023-03-08T01:34:52;96329.34;;;3.77;85.24
11448;BME280;43755;49.736;8.734;2023-03-08T01:36:53;96320.66;;;3.77;84.98
11448;BME280;43755;49.736;8.734;2023-03-08T01:38:55;96314.69;;;3.73;86.91
11448;BME280;43755;49.736;8.734;2023-03-08T01:40:58;96314.84;;;3.70;86.34
11448;BME280;43755;49.736;8.734;2023-03-08T01:43:10;96304.22;;;3.73;85.84
11448;BME280;43755;49.736;8.734;2023-03-08T01:47:50;96306.91;;;3.71;85.76
11448;BME280;43755;49.736;8.734;2023-03-08T01:49:52;96299.84;;;3.74;86.99
11448;BME280;43755;49.736;8.734;2023-03-08T01:51:58;96289.41;;;3.74;87.11
11448;BME280;43755;49.736;8.734;2023-03-08T01:54:05;96290.44;;;3.69;85.81
11448;BME280;43755;49.736;8.734;2023-03-08T01:56:11;96301.75;;;3.70;85.41
11448;BME280;43755;49.736;8.734;2023-03-08T01:58:13;96297.31;;;3.72;85.00
11448;BME280;43755;49.736;8.734;2023-03-08T02:00:18;96293.72;;;3.75;86.14
11448;BME280;43755;49.736;8.734;2023-03-08T02:02:24;96294.63;;;3.74;84.67
11448;BME280;43755;49.736;8.734;2023-03-08T02:04:26;96291.94;;;3.75;84.80
11448;BME280;43755;49.736;8.734;2023-03-08T02:06:28;96286.72;;;3.75;83.64
11448;BME280;43755;49.736;8.734;2023-03-08T02:08:30;96290.19;;;3.76;83.02
11448;BME280;43755;49.736;8.734;2023-03-08T02:10:32;96289.41;;;3.74;83.75
11448;BME280;43755;49.736;8.734;2023-03-08T02:12:35;96281.56;;;3.74;84.71
11448;BME280;43755;49.736;8.734;2023-03-08T02:14:38;96283.56;;;3.67;84.78
11448;BME280;43755;49.736;8.734;2023-03-08T02:16:39;96279.25;;;3.66;84.69
11448;BME280;43755;49.736;8.734;2023-03-08T02:18:53;96272.34;;;3.65;84.81
11448;BME280;43755;49.736;8.734;2023-03-08T02:20:55;96271.41;;;3.66;85.96
11448;BME280;43755;49.736;8.734;2023-03-08T02:23:07;96267.28;;;3.60;86.08
11448;BME280;43755;49.736;8.734;2023-03-08T02:25:12;96263.81;;;3.60;86.68
11448;BME280;43755;49.736;8.734;2023-03-08T02:27:17;96258.81;;;3.55;85.06
11448;BME280;43755;49.736;8.734;2023-03-08T02:29:20;96264.63;;;3.62;85.40
11448;BME280;43755;49.736;8.734;2023-03-08T02:31:21;96257.69;;;3.61;86.66
11448;BME280;43755;49.736;8.734;2023-03-08T02:33:23;96249.19;;;3.56;85.03
11448;BME280;43755;49.736;8.734;2023-03-08T02:35:24;96250.84;;;3.58;85.38
11448;BME280;43755;49.736;8.734;2023-03-08T02:37:26;96243.91;;;3.57;86.30
11448;BME280;43755;49.736;8.734;2023-03-08T02:39:28;96244.81;;;3.56;86.77
11448;BME280;43755;49.736;8.734;2023-03-08T02:41:30;96247.19;;;3.62;85.75
11448;BME280;43755;49.736;8.734;2023-03-08T02:43:32;96237.69;;;3.60;85.63
11448;BME280;43755;49.736;8.734;2023-03-08T02:45:35;96244.69;;;3.59;83.63
11448;BME280;43755;49.736;8.734;2023-03-08T02:47:37;96236.00;;;3.59;84.06
11448;BME280;43755;49.736;8.734;2023-03-08T02:49:39;96235.47;;;3.51;85.80
11448;BME280;43755;49.736;8.734;2023-03-08T02:51:40;96232.06;;;3.49;85.09
11448;BME280;43755;49.736;8.734;2023-03-08T02:53:41;96224.06;;;3.53;86.10
11448;BME280;43755;49.736;8.734;2023-03-08T02:55:44;96229.47;;;3.49;86.74
11448;BME280;43755;49.736;8.734;2023-03-08T02:57:45;96234.09;;;3.42;85.56
11448;BME280;43755;49.736;8.734;2023-03-08T02:59:47;96224.50;;;3.43;85.90
11448;BME280;43755;49.736;8.734;2023-03-08T03:01:48;96225.53;;;3.39;85.17
11448;BME280;43755;49.736;8.734;2023-03-08T03:03:52;96224.59;;;3.41;86.13
11448;BME280;43755;49.736;8.734;2023-03-08T03:05:54;96230.72;;;3.40;86.60
11448;BME280;43755;49.736;8.734;2023-03-08T03:07:55;96223.84;;;3.38;84.73
11448;BME280;43755;49.736;8.734;2023-03-08T03:09:57;96223.72;;;3.41;86.04
11448;BME280;43755;49.736;8.734;2023-03-08T03:12:00;96222.03;;;3.40;86.18
11448;BME280;43755;49.736;8.734;2023-03-08T03:14:02;96215.16;;;3.37;85.33
11448;BME280;43755;49.736;8.734;2023-03-08T03:16:05;96220.25;;;3.40;86.08
11448;BME280;43755;49.736;8.734;2023-03-08T03:18:07;96215.78;;;3.42;84.55
11448;BME280;43755;49.736;8.734;2023-03-08T03:20:09;96211.78;;;3.35;85.33
11448;BME280;43755;49.736;8.734;2023-03-08T03:22:11;96208.09;;;3.39;84.93
11448;BME280;43755;49.736;8.734;2023-03-08T03:24:13;96209.81;;;3.40;85.81
11448;BME280;43755;49.736;8.734;2023-03-08T03:26:16;96203.00;;;3.36;84.47
11448;BME280;43755;49.736;8.734;2023-03-08T03:28:19;96196.09;;;3.35;86.08
11448;BME280;43755;49.736;8.734;2023-03-08T03:30:21;96194.38;;;3.34;87.53
11448;BME280;43755;49.736;8.734;2023-03-08T03:32:22;96189.28;;;3.31;85.43
11448;BME280;43755;49.736;8.734;2023-03-08T03:34:24;96200.59;;;3.32;85.05
11448;BME280;43755;49.736;8.734;2023-03-08T03:36:25;96188.38;;;3.32;84.84
11448;BME280;43755;49.736;8.734;2023-03-08T03:38:27;96198.97;;;3.29;87.19
11448;BME280;43755;49.736;8.734;2023-03-08T03:40:28;96195.56;;;3.27;86.26
11448;BME280;43755;49.736;8.734;2023-03-08T03:42:30;96187.56;;;3.30;85.25
11448;BME280;43755;49.736;8.734;2023-03-08T03:44:33;96186.75;;;3.29;86.05
11448;BME280;43755;49.736;8.734;2023-03-08T03:46:34;96188.63;;;3.26;84.79
11448;BME280;43755;49.736;8.734;2023-03-08T03:48:36;96186.91;;;3.25;84.69
11448;BME280;43755;49.736;8.734;2023-03-08T03:50:38;96190.19;;;3.30;83.69
11448;BME280;43755;49.736;8.734;2023-03-08T03:52:39;96192.16;;;3.25;85.62
11448;BME280;43755;49.736;8.734;2023-03-08T03:54:41;96190.59;;;3.21;85.89
11448;BME280;43755;49.736;8.734;2023-03-08T03:56:42;96192.56;;;3.16;87.87
11448;BME280;43755;49.736;8.734;2023-03-08T03:58:44;96183.88;;;3.15;85.66
11448;BME280;43755;49.736;8.734;2023-03-08T04:00:47;96193.91;;;3.24;85.43
11448;BME280;43755;49.736;8.734;2023-03-08T04:02:48;96193.91;;;3.24;83.83
11448;BME280;43755;49.736;8.734;2023-03-08T04:04:49;96196.53;;;3.24;84.27
11448;BME280;43755;49.736;8.734;2023-03-08T04:06:51;96192.28;;;3.22;85.67
11448;BME280;43755;49.736;8.734;2023-03-08T04:08:53;96190.75;;;3.18;85.98
11448;BME280;43755;49.736;8.734;2023-03-08T04:10:58;96187.13;;;3.20;84.68
11448;BME280;43755;49.736;8.734;2023-03-08T04:13:00;96186.53;;;3.14;85.63
11448;BME280;43755;49.736;8.734;2023-03-08T04:15:01;96172.88;;;3.07;86.79
11448;BME280;43755;49.736;8.734;2023-03-08T04:17:04;96173.81;;;3.06;86.51
11448;BME280;43755;49.736;8.734;2023-03-08T04:19:09;96165.03;;;3.07;84.25
11448;BME280;43755;49.736;8.734;2023-03-08T04:21:12;96161.53;;;3.08;86.80
11448;BME280;43755;49.736;8.734;2023-03-08T04:23:13;96168.00;;;3.00;86.52
11448;BME280;43755;49.736;8.734;2023-03-08T04:25:15;96159.56;;;2.93;87.68
11448;BME280;43755;49.736;8.734;2023-03-08T04:27:16;96163.19;;;2.89;88.39
11448;BME280;43755;49.736;8.734;2023-03-08T04:29:17;96158.72;;;2.93;87.78
11448;BME280;43755;49.736;8.734;2023-03-08T04:31:21;96163.88;;;2.94;88.05
11448;BME280;43755;49.736;8.734;2023-03-08T04:33:24;96172.53;;;2.95;87.12
11448;BME280;43755;49.736;8.734;2023-03-08T04:35:26;96175.69;;;3.03;88.69
11448;BME280;43755;49.736;8.734;2023-03-08T04:37:27;96164.44;;;3.01;87.15
11448;BME280;43755;49.736;8.734;2023-03-08T04:39:29;96160.06;;;3.01;87.88
11448;BME280;43755;49.736;8.734;2023-03-08T04:41:31;96160.16;;;3.00;88.06
11448;BME280;43755;49.736;8.734;2023-03-08T04:43:32;96155.69;;;3.02;86.43
11448;BME280;43755;49.736;8.734;2023-03-08T04:45:34;96153.81;;;3.05;86.91
11448;BME280;43755;49.736;8.734;2023-03-08T04:47:35;96148.50;;;3.07;87.28
11448;BME280;43755;49.736;8.734;2023-03-08T04:49:38;96146.97;;;3.03;88.21
11448;BME280;43755;49.736;8.734;2023-03-08T04:51:39;96147.97;;;3.00;87.73
11448;BME280;43755;49.736;8.734;2023-03-08T04:53:41;96148.91;;;2.98;88.80
11448;BME280;43755;49.736;8.734;2023-03-08T04:55:44;96143.81;;;2.95;87.65
11448;BME280;43755;49.736;8.734;2023-03-08T04:57:45;96145.19;;;3.03;88.44
11448;BME280;43755;49.736;8.734;2023-03-08T04:59:47;96141.88;;;3.00;87.84
11448;BME280;43755;49.736;8.734;2023-03-08T05:01:48;96147.88;;;3.02;88.05
11448;BME280;43755;49.736;8.734;2023-03-08T05:03:50;96133.31;;;2.96;86.97
11448;BME280;43755;49.736;8.734;2023-03-08T05:05:55;96138.47;;;2.98;87.68
11448;BME280;43755;49.736;8.734;2023-03-08T05:07:56;96136.66;;;3.00;86.64
11448;BME280;43755;49.736;8.734;2023-03-08T05:09:58;96135.72;;;3.01;86.58
11448;BME280;43755;49.736;8.734;2023-03-08T05:12:00;96134.63;;;3.06;85.36
11448;BME280;43755;49.736;8.734;2023-03-08T05:14:01;96135.34;;;3.10;84.80
11448;BME280;43755;49.736;8.734;2023-03-08T05:16:04;96133.69;;;3.07;83.87
11448;BME280;43755;49.736;8.734;2023-03-08T05:18:06;96126.00;;;3.04;84.49
11448;BME280;43755;49.736;8.734;2023-03-08T05:20:08;96124.31;;;3.03;84.22
11448;BME280;43755;49.736;8.734;2023-03-08T05:22:11;96121.75;;;3.02;86.86
11448;BME280;43755;49.736;8.734;2023-03-08T05:24:13;96126.06;;;3.03;85.24
11448;BME280;43755;49.736;8.734;2023-03-08T05:26:16;96127.63;;;3.07;86.63
11448;BME280;43755;49.736;8.734;2023-03-08T05:28:18;96139.00;;;3.06;85.39
11448;BME280;43755;49.736;8.734;2023-03-08T05:30:19;96123.44;;;3.03;84.66
11448;BME280;43755;49.736;8.734;2023-03-08T05:32:21;96126.00;;;3.04;85.27
11448;BME280;43755;49.736;8.734;2023-03-08T05:34:22;96122.59;;;3.02;85.82
11448;BME280;43755;49.736;8.734;2023-03-08T05:36:23;96127.72;;;3.05;86.12
11448;BME280;43755;49.736;8.734;2023-03-08T05:38:27;96131.94;;;3.08;85.34
11448;BME280;43755;49.736;8.734;2023-03-08T05:40:28;96116.25;;;3.08;86.40
11448;BME280;43755;49.736;8.734;2023-03-08T05:42:30;96112.69;;;3.10;87.09
11448;BME280;43755;49.736;8.734;2023-03-08T05:44:31;96126.97;;;3.02;89.51
11448;BME280;43755;49.736;8.734;2023-03-08T05:46:33;96121.84;;;3.00;92.49
11448;BME280;43755;49.736;8.734;2023-03-08T05:48:37;96117.63;;;2.96;97.73
11448;BME280;43755;49.736;8.734;2023-03-08T05:50:38;96116.91;;;2.72;100.00
11448;BME280;43755;49.736;8.734;2023-03-08T05:52:39;96105.47;;;2.55;100.00
11448;BME280;43755;49.736;8.734;2023-03-08T05:54:43;96106.31;;;2.55;100.00
11448;BME280;43755;49.736;8.734;2023-03-08T05:56:45;96104.81;;;2.50;100.00
11448;BME280;43755;49.736;8.734;2023-03-08T05:58:46;96111.38;;;2.38;100.00
11448;BME280;43755;49.736;8.734;2023-03-08T06:00:48;96107.97;;;2.36;100.00
11448;BME280;43755;49.736;8.734;2023-03-08T06:02:49;96094.81;;;2.39;100.00
11448;BME280;43755;49.736;8.734;2023-03-08T06:04:51;96096.63;;;2.37;100.00
11448;BME280;43755;49.736;8.734;2023-03-08T06:06:52;96108.13;;;2.33;100.00
11448;BME280;43755;49.736;8.734;2023-03-08T06:08:53;96103.53;;;2.18;100.00
11448;BME280;43755;49.736;8.734;2023-03-08T06:10:57;96111.41;;;2.16;100.00
11448;BME280;43755;49.736;8.734;2023-03-08T06:12:58;96106.28;;;2.13;100.00
11448;BME280;43755;49.736;8.734;2023-03-08T06:15:00;96098.94;;;2.01;100.00
11448;BME280;43755;49.736;8.734;2023-03-08T06:17:01;96096.28;;;2.02;100.00
11448;BME280;43755;49.736;8.734;2023-03-08T06:19:03;96087.19;;;1.91;100.00
11448;BME280;43755;49.736;8.734;2023-03-08T06:21:05;96088.03;;;1.91;100.00
11448;BME280;43755;49.736;8.734;2023-03-08T06:23:07;96075.47;;;1.79;100.00
11448;BME280;43755;49.736;8.734;2023-03-08T06:25:09;96062.50;;;1.78;100.00
11448;BME280;43755;49.736;8.734;2023-03-08T06:27:11;96060.03;;;1.75;100.00
11448;BME280;43755;49.736;8.734;2023-03-08T06:29:13;96060.03;;;1.75;100.00
11448;BME280;43755;49.736;8.734;2023-03-08T06:31:16;96066.19;;;1.72;100.00
11448;BME280;43755;49.736;8.734;2023-03-08T06:33:19;96070.50;;;1.73;100.00
11448;BME280;43755;49.736;8.734;2023-03-08T06:35:21;96063.78;;;1.68;100.00
11448;BME280;43755;49.736;8.734;2023-03-08T06:37:22;96060.97;;;1.72;100.00
11448;BME280;43755;49.736;8.734;2023-03-08T06:39:23;96054.88;;;1.73;100.00
11448;BME280;43755;49.736;8.734;2023-03-08T06:41:26;96059.28;;;1.71;100.00
11448;BME280;43755;49.736;8.734;2023-03-08T06:43:30;96057.59;;;1.70;100.00
11448;BME280;43755;49.736;8.734;2023-03-08T06:45:31;96061.13;;;1.69;100.00
11448;BME280;43755;49.736;8.734;2023-03-08T06:47:33;96060.97;;;1.72;100.00
11448;BME280;43755;49.736;8.734;2023-03-08T06:49:35;96066.88;;;1.77;100.00
11448;BME280;43755;49.736;8.734;2023-03-08T06:51:37;96055.84;;;1.71;100.00
11448;BME280;43755;49.736;8.734;2023-03-08T06:53:38;96039.38;;;1.70;100.00
11448;BME280;43755;49.736;8.734;2023-03-08T06:55:40;96046.25;;;1.71;100.00
11448;BME280;43755;49.736;8.734;2023-03-08T06:57:42;96039.00;;;1.79;100.00
11448;BME280;43755;49.736;8.734;2023-03-08T06:59:44;96035.41;;;1.82;100.00
11448;BME280;43755;49.736;8.734;2023-03-08T07:01:46;96028.31;;;1.85;100.00
11448;BME280;43755;49.736;8.734;2023-03-08T07:03:47;96028.88;;;1.93;100.00
11448;BME280;43755;49.736;8.734;2023-03-08T07:05:49;96026.06;;;1.98;100.00
11448;BME280;43755;49.736;8.734;2023-03-08T07:07:50;96023.31;;;2.01;100.00
11448;BME280;43755;49.736;8.734;2023-03-08T07:09:52;96016.09;;;2.08;100.00
11448;BME280;43755;49.736;8.734;2023-03-08T07:11:53;96005.56;;;2.11;100.00
11448;BME280;43755;49.736;8.734;2023-03-08T07:13:56;96003.66;;;2.14;100.00
11448;BME280;43755;49.736;8.734;2023-03-08T07:15:58;96005.31;;;2.17;100.00
11448;BME280;43755;49.736;8.734;2023-03-08T07:18:00;96003.59;;;2.16;100.00
11448;BME280;43755;49.736;8.734;2023-03-08T07:20:02;96005.31;;;2.17;100.00
11448;BME280;43755;49.736;8.734;2023-03-08T07:22:05;96001.09;;;2.13;100.00
11448;BME280;43755;49.736;8.734;2023-03-08T07:24:07;96002.16;;;2.09;100.00
11448;BME280;43755;49.736;8.734;2023-03-08T07:26:10;95988.41;;;2.05;100.00
11448;BME280;43755;49.736;8.734;2023-03-08T07:28:11;95988.31;;;2.06;100.00
11448;BME280;43755;49.736;8.734;2023-03-08T07:30:14;95996.41;;;2.00;100.00
11448;BME280;43755;49.736;8.734;2023-03-08T07:32:17;95985.56;;;1.89;100.00
11448;BME280;43755;49.736;8.734;2023-03-08T07:34:20;95992.78;;;1.83;100.00
11448;BME280;43755;49.736;8.734;2023-03-08T07:36:21;95986.91;;;1.78;100.00
11448;BME280;43755;49.736;8.734;2023-03-08T07:38:23;95977.56;;;1.72;100.00
11448;BME280;43755;49.736;8.734;2023-03-08T07:40:24;95967.28;;;1.69;100.00
11448;BME280;43755;49.736;8.734;2023-03-08T07:42:25;95956.88;;;1.69;100.00
11448;BME280;43755;49.736;8.734;2023-03-08T07:44:27;95959.81;;;1.60;100.00
11448;BME280;43755;49.736;8.734;2023-03-08T07:46:29;95966.94;;;1.56;100.00
11448;BME280;43755;49.736;8.734;2023-03-08T07:48:32;95946.03;;;1.58;100.00
11448;BME280;43755;49.736;8.734;2023-03-08T07:50:33;95941.72;;;1.57;100.00
11448;BME280;43755;49.736;8.734;2023-03-08T07:52:35;95946.31;;;1.50;100.00
11448;BME280;43755;49.736;8.734;2023-03-08T07:54:36;95945.28;;;1.54;100.00
11448;BME280;43755;49.736;8.734;2023-03-08T07:56:37;95942.56;;;1.57;100.00
11448;BME280;43755;49.736;8.734;2023-03-08T07:58:39;95931.06;;;1.63;100.00
11448;BME280;43755;49.736;8.734;2023-03-08T08:00:40;95925.88;;;1.61;100.00
11448;BME280;43755;49.736;8.734;2023-03-08T08:02:42;95921.59;;;1.60;100.00
11448;BME280;43755;49.736;8.734;2023-03-08T08:04:45;95914.63;;;1.61;100.00
11448;BME280;43755;49.736;8.734;2023-03-08T08:06:46;95899.88;;;1.60;100.00
11448;BME280;43755;49.736;8.734;2023-03-08T08:08:47;95906.75;;;1.62;100.00
11448;BME280;43755;49.736;8.734;2023-03-08T08:10:49;95900.94;;;1.56;100.00
11448;BME280;43755;49.736;8.734;2023-03-08T08:12:50;95888.75;;;1.56;100.00
11448;BME280;43755;49.736;8.734;2023-03-08T08:14:52;95894.63;;;1.61;100.00
11448;BME280;43755;49.736;8.734;2023-03-08T08:16:53;95894.16;;;1.52;100.00
11448;BME280;43755;49.736;8.734;2023-03-08T08:18:55;95889.09;;;1.47;100.00
11448;BME280;43755;49.736;8.734;2023-03-08T08:21:02;95883.28;;;1.62;100.00
11448;BME280;43755;49.736;8.734;2023-03-08T08:23:04;95876.69;;;1.54;100.00
11448;BME280;43755;49.736;8.734;2023-03-08T08:25:06;95871.66;;;1.49;100.00
11448;BME280;43755;49.736;8.734;2023-03-08T08:27:08;95869.66;;;1.56;100.00
11448;BME280;43755;49.736;8.734;2023-03-08T08:29:09;95854.69;;;1.61;100.00
11448;BME280;43755;49.736;8.734;2023-03-08T08:31:13;95860.69;;;1.63;100.00
11448;BME280;43755;49.736;8.734;2023-03-08T08:33:14;95837.34;;;1.60;100.00
11448;BME280;43755;49.736;8.734;2023-03-08T08:35:16;95832.53;;;1.51;100.00
11448;BME280;43755;49.736;8.734;2023-03-08T08:37:19;95827.38;;;1.49;100.00
11448;BME280;43755;49.736;8.734;2023-03-08T08:39:20;95825.06;;;1.63;100.00
11448;BME280;43755;49.736;8.734;2023-03-08T08:41:22;95820.75;;;1.62;100.00
11448;BME280;43755;49.736;8.734;2023-03-08T08:43:23;95807.78;;;1.61;100.00
11448;BME280;43755;49.736;8.734;2023-03-08T08:45:25;95801.66;;;1.62;100.00
11448;BME280;43755;49.736;8.734;2023-03-08T08:47:27;95809.47;;;1.62;100.00
11448;BME280;43755;49.736;8.734;2023-03-08T08:49:28;95805.81;;;1.66;100.00
11448;BME280;43755;49.736;8.734;2023-03-08T08:51:30;95811.81;;;1.68;100.00
11448;BME280;43755;49.736;8.734;2023-03-08T08:53:33;95800.69;;;1.64;100.00
11448;BME280;43755;49.736;8.734;2023-03-08T08:55:36;95794.28;;;1.72;100.00
11448;BME280;43755;49.736;8.734;2023-03-08T08:57:37;95785.94;;;1.84;100.00
11448;BME280;43755;49.736;8.734;2023-03-08T08:59:39;95768.09;;;1.75;100.00
11448;BME280;43755;49.736;8.734;2023-03-08T09:01:40;95775.84;;;1.76;100.00
11448;BME280;43755;49.736;8.734;2023-03-08T09:03:44;95765.56;;;1.73;100.00
11448;BME280;43755;49.736;8.734;2023-03-08T09:05:45;95760.97;;;1.78;100.00
11448;BME280;43755;49.736;8.734;2023-03-08T09:07:47;95758.94;;;1.85;100.00
11448;BME280;43755;49.736;8.734;2023-03-08T09:09:53;95751.28;;;1.82;100.00
11448;BME280;43755;49.736;8.734;2023-03-08T09:11:54;95750.00;;;1.90;100.00
11448;BME280;43755;49.736;8.734;2023-03-08T09:13:56;95756.66;;;1.97;100.00
11448;BME280;43755;49.736;8.734;2023-03-08T09:15:57;95744.41;;;1.99;100.00
11448;BME280;43755;49.736;8.734;2023-03-08T09:17:59;95738.47;;;1.96;100.00
11448;BME280;43755;49.736;8.734;2023-03-08T09:20:00;95740.53;;;2.08;100.00
11448;BME280;43755;49.736;8.734;2023-03-08T09:22:05;95745.66;;;2.10;100.00
11448;BME280;43755;49.736;8.734;2023-03-08T09:24:06;95736.03;;;2.12;100.00
11448;BME280;43755;49.736;8.734;2023-03-08T09:26:11;95742.16;;;2.11;100.00
11448;BME280;43755;49.736;8.734;2023-03-08T09:28:12;95736.84;;;2.12;100.00
11448;BME280;43755;49.736;8.734;2023-03-08T09:30:15;95741.03;;;2.16;100.00
11448;BME280;43755;49.736;8.734;2023-03-08T09:32:16;95739.81;;;2.04;100.00
11448;BME280;43755;49.736;8.734;2023-03-08T09:34:19;95742.44;;;2.04;100.00
11448;BME280;43755;49.736;8.734;2023-03-08T09:36:20;95750.25;;;2.04;100.00
11448;BME280;43755;49.736;8.734;2023-03-08T09:38:22;95751.59;;;1.94;100.00
11448;BME280;43755;49.736;8.734;2023-03-08T09:40:25;95747.78;;;2.01;100.00
11448;BME280;43755;49.736;8.734;2023-03-08T09:42:30;95733.81;;;2.02;100.00
11448;BME280;43755;49.736;8.734;2023-03-08T09:44:56;95740.22;;;1.95;100.00
11448;BME280;43755;49.736;8.734;2023-03-08T09:47:04;95732.66;;;1.89;100.00
11448;BME280;43755;49.736;8.734;2023-03-08T09:49:12;95716.84;;;1.94;100.00
11448;BME280;43755;49.736;8.734;2023-03-08T09:51:17;95717.75;;;1.93;100.00
11448;BME280;43755;49.736;8.734;2023-03-08T09:53:23;95698.44;;;1.97;100.00
11448;BME280;43755;49.736;8.734;2023-03-08T09:55:29;95708.19;;;1.93;100.00
11448;BME280;43755;49.736;8.734;2023-03-08T09:57:35;95714.50;;;1.88;100.00
11448;BME280;43755;49.736;8.734;2023-03-08T09:59:40;95699.44;;;1.94;100.00
11448;BME280;43755;49.736;8.734;2023-03-08T10:01:51;95678.28;;;2.00;100.00
11448;BME280;43755;49.736;8.734;2023-03-08T10:04:12;95707.41;;;2.10;100.00
11448;BME280;43755;49.736;8.734;2023-03-08T10:06:18;95689.91;;;2.12;100.00
11448;BME280;43755;49.736;8.734;2023-03-08T10:08:24;95673.06;;;2.19;100.00
11448;BME280;43755;49.736;8.734;2023-03-08T10:10:38;95694.78;;;2.20;100.00
11448;BME280;43755;49.736;8.734;2023-03-08T10:12:54;95694.09;;;2.16;100.00
11448;BME280;43755;49.736;8.734;2023-03-08T10:15:02;95682.28;;;2.08;100.00
11448;BME280;43755;49.736;8.734;2023-03-08T10:17:09;95683.59;;;2.18;100.00
11448;BME280;43755;49.736;8.734;2023-03-08T10:19:15;95675.38;;;2.25;100.00
11448;BME280;43755;49.736;8.734;2023-03-08T10:21:20;95684.69;;;2.31;100.00
11448;BME280;43755;49.736;8.734;2023-03-08T10:23:22;95674.81;;;2.19;100.00
11448;BME280;43755;49.736;8.734;2023-03-08T10:25:26;95671.91;;;2.25;100.00
11448;BME280;43755;49.736;8.734;2023-03-08T10:27:32;95664.88;;;2.27;100.00
11448;BME280;43755;49.736;8.734;2023-03-08T10:29:36;95663.81;;;2.31;100.00
11448;BME280;43755;49.736;8.734;2023-03-08T10:31:37;95662.13;;;2.30;100.00
11448;BME280;43755;49.736;8.734;2023-03-08T10:33:39;95658.59;;;2.31;100.00
11448;BME280;43755;49.736;8.734;2023-03-08T10:35:53;95652.09;;;2.39;100.00
11448;BME280;43755;49.736;8.734;2023-03-08T10:37:54;95656.31;;;2.42;100.00
11448;BME280;43755;49.736;8.734;2023-03-08T10:39:56;95646.41;;;2.31;100.00
11448;BME280;43755;49.736;8.734;2023-03-08T10:42:12;95651.38;;;2.36;100.00
11448;BME280;43755;49.736;8.734;2023-03-08T10:44:28;95642.19;;;2.29;100.00
11448;BME280;43755;49.736;8.734;2023-03-08T10:46:31;95651.09;;;2.42;100.00
11448;BME280;43755;49.736;8.734;2023-03-08T10:48:32;95644.38;;;2.55;100.00
11448;BME280;43755;49.736;8.734;2023-03-08T10:50:35;95643.38;;;2.58;100.00
11448;BME280;43755;49.736;8.734;2023-03-08T10:52:37;95645.59;;;2.65;100.00
11448;BME280;43755;49.736;8.734;2023-03-08T10:54:38;95637.34;;;2.74;100.00
11448;BME280;43755;49.736;8.734;2023-03-08T10:56:42;95633.19;;;2.70;100.00